Time;durP1;ratioP1;P1;durP2;ratioP2;P2;SDS_P1;SDS_P2;PMS_P1;PMS_P2;Temp;Humidity;BMP_temperature;BMP_pressure;BME280_temperature;BME280_humidity;BME280_pressure;Samples;Min_cycle;Max_cycle;Signal;HPM_P1;HPM_P2
2023/11/26 00:00:26;;;;;;;4.50;3.42;;;;;;;;;;4974205;28;20030;-66
2023/11/26 00:03:11;;;;;;;4.00;3.03;;;;;;;;;;4974329;28;20447;-65
2023/11/26 00:05:57;;;;;;;6.43;3.65;;;;;;;;;;4974078;28;20109;-65
2023/11/26 00:08:42;;;;;;;4.20;2.70;;;;;;;;;;4973591;28;20022;-65
2023/11/26 00:11:28;;;;;;;4.75;2.50;;;;;;;;;;4960643;28;20026;-65
2023/11/26 00:14:14;;;;;;;2.80;2.45;;;;;;;;;;4975014;28;20019;-65
2023/11/26 00:16:59;;;;;;;3.42;2.35;;;;;;;;;;4974325;28;20023;-65
2023/11/26 00:19:45;;;;;;;4.97;2.58;;;;;;;;;;4974340;28;20019;-65
2023/11/26 00:22:31;;;;;;;3.03;1.90;;;;;;;;;;4973776;28;20038;-65
2023/11/26 00:25:16;;;;;;;3.22;2.20;;;;;;;;;;4974383;28;20026;-65
2023/11/26 00:28:02;;;;;;;6.60;2.50;;;;;;;;;;4973908;28;20026;-65
2023/11/26 00:30:48;;;;;;;5.15;2.45;;;;;;;;;;4974152;28;20027;-65
2023/11/26 00:33:34;;;;;;;4.40;2.67;;;;;;;;;;4973690;28;20425;-65
2023/11/26 00:36:21;;;;;;;4.28;1.90;;;;;;;;;;4973911;28;20023;-66
2023/11/26 00:39:08;;;;;;;6.60;2.55;;;;;;;;;;4973848;28;20030;-65
2023/11/26 00:41:54;;;;;;;3.50;2.17;;;;;;;;;;4974234;28;20038;-65
2023/11/26 00:44:40;;;;;;;2.78;1.83;;;;;;;;;;4973713;28;20504;-66
2023/11/26 00:47:26;;;;;;;2.10;1.90;;;;;;;;;;4973702;28;20042;-65
2023/11/26 00:50:12;;;;;;;4.28;2.00;;;;;;;;;;4973761;28;20098;-65
2023/11/26 00:52:58;;;;;;;4.80;2.42;;;;;;;;;;4975427;28;20027;-65
2023/11/26 00:55:45;;;;;;;3.58;2.30;;;;;;;;;;4974094;28;20106;-65
2023/11/26 00:58:31;;;;;;;2.40;2.20;;;;;;;;;;4960347;28;20029;-65
2023/11/26 01:01:16;;;;;;;5.28;2.63;;;;;;;;;;4975023;28;20022;-65
2023/11/26 01:04:03;;;;;;;2.75;2.35;;;;;;;;;;4974418;28;20022;-66
2023/11/26 01:06:48;;;;;;;5.60;2.33;;;;;;;;;;4960787;28;20037;-65
2023/11/26 01:09:34;;;;;;;6.57;3.38;;;;;;;;;;4974305;28;20027;-65
2023/11/26 01:12:20;;;;;;;5.65;2.22;;;;;;;;;;4972888;28;20026;-65
2023/11/26 01:15:06;;;;;;;2.30;1.77;;;;;;;;;;4973485;28;20050;-65
2023/11/26 01:17:51;;;;;;;4.38;2.75;;;;;;;;;;4977476;28;20023;-65
2023/11/26 01:20:37;;;;;;;3.75;2.22;;;;;;;;;;4977633;28;20031;-65
2023/11/26 01:23:23;;;;;;;3.95;2.13;;;;;;;;;;4978253;28;20026;-66
2023/11/26 01:26:10;;;;;;;7.20;2.17;;;;;;;;;;4978502;28;20377;-65
2023/11/26 01:28:56;;;;;;;4.68;2.95;;;;;;;;;;4978439;28;20054;-65
2023/11/26 01:31:41;;;;;;;3.08;1.95;;;;;;;;;;4977202;28;20419;-65
2023/11/26 01:34:28;;;;;;;4.65;2.35;;;;;;;;;;4988985;28;20011;-66
2023/11/26 01:37:13;;;;;;;5.10;2.08;;;;;;;;;;4977996;28;20503;-65
2023/11/26 01:39:59;;;;;;;4.32;2.50;;;;;;;;;;4977073;28;20027;-65
2023/11/26 01:42:45;;;;;;;4.07;2.30;;;;;;;;;;4977928;28;20142;-65
2023/11/26 01:45:30;;;;;;;4.05;2.20;;;;;;;;;;4978429;28;20065;-65
2023/11/26 01:48:16;;;;;;;3.47;2.35;;;;;;;;;;4977396;28;20033;-65
2023/11/26 01:51:05;;;;;;;4.32;2.67;;;;;;;;;;4966333;28;20484;-65
2023/11/26 01:53:52;;;;;;;16.15;5.28;;;;;;;;;;4976872;28;20115;-65
2023/11/26 01:56:38;;;;;;;7.45;3.88;;;;;;;;;;4976871;28;20066;-65
2023/11/26 01:59:23;;;;;;;6.97;4.05;;;;;;;;;;4977062;28;20484;-65
2023/11/26 02:02:09;;;;;;;4.22;3.33;;;;;;;;;;4977488;28;20034;-65
2023/11/26 02:04:55;;;;;;;4.07;2.80;;;;;;;;;;4995224;28;20022;-65
2023/11/26 02:07:41;;;;;;;6.45;2.40;;;;;;;;;;4995903;28;20554;-65
2023/11/26 02:10:27;;;;;;;5.80;2.55;;;;;;;;;;4979009;28;20034;-65
2023/11/26 02:13:12;;;;;;;6.30;3.10;;;;;;;;;;4976860;28;20030;-65
2023/11/26 02:15:58;;;;;;;2.47;1.70;;;;;;;;;;4977223;28;20085;-65
2023/11/26 02:18:44;;;;;;;3.17;2.20;;;;;;;;;;4984881;28;20031;-65
2023/11/26 02:21:29;;;;;;;2.83;1.95;;;;;;;;;;4985042;28;20048;-66
2023/11/26 02:24:16;;;;;;;3.22;2.17;;;;;;;;;;4995936;28;20029;-65
2023/11/26 02:27:02;;;;;;;4.45;2.63;;;;;;;;;;4978868;28;20049;-66
2023/11/26 02:29:47;;;;;;;10.52;2.80;;;;;;;;;;4992164;28;20022;-65
2023/11/26 02:32:33;;;;;;;10.63;3.55;;;;;;;;;;4981742;28;20027;-65
2023/11/26 02:35:19;;;;;;;5.95;2.67;;;;;;;;;;4976567;28;20159;-65
2023/11/26 02:38:04;;;;;;;6.40;2.65;;;;;;;;;;4977788;28;20034;-65
2023/11/26 02:40:50;;;;;;;3.70;2.22;;;;;;;;;;4976567;28;20027;-65
2023/11/26 02:43:36;;;;;;;2.58;2.15;;;;;;;;;;4976635;28;20041;-65
2023/11/26 02:46:21;;;;;;;4.05;2.28;;;;;;;;;;4981387;28;20014;-65
2023/11/26 02:49:08;;;;;;;6.40;2.50;;;;;;;;;;4995302;28;20041;-65
2023/11/26 02:51:54;;;;;;;3.38;2.40;;;;;;;;;;4996067;28;20053;-65
2023/11/26 02:54:39;;;;;;;3.80;2.13;;;;;;;;;;4995221;28;20033;-65
2023/11/26 02:57:25;;;;;;;4.22;2.33;;;;;;;;;;4995690;28;20037;-65
2023/11/26 03:00:20;;;;;;;3.03;2.15;;;;;;;;;;4990913;28;20052;-65
2023/11/26 03:03:06;;;;;;;2.88;2.17;;;;;;;;;;4995250;28;20023;-65
2023/11/26 03:05:54;;;;;;;6.65;2.63;;;;;;;;;;4978576;28;20054;-66
2023/11/26 03:08:43;;;;;;;5.18;2.45;;;;;;;;;;4980395;28;20646;-65
2023/11/26 03:14:32;;;;;;;3.92;2.33;;;;;;;;;;4989151;28;20022;-65
2023/11/26 03:17:19;;;;;;;3.60;1.95;;;;;;;;;;4984085;28;20484;-65
2023/11/26 03:20:06;;;;;;;4.93;2.22;;;;;;;;;;4994832;28;20081;-65
2023/11/26 03:22:53;;;;;;;7.10;3.08;;;;;;;;;;4994020;28;20061;-65
2023/11/26 03:25:39;;;;;;;4.20;2.60;;;;;;;;;;4983606;28;20400;-65
2023/11/26 03:28:24;;;;;;;3.88;2.88;;;;;;;;;;4975724;28;20489;-65
2023/11/26 03:31:10;;;;;;;7.20;2.72;;;;;;;;;;4990583;28;20034;-65
2023/11/26 03:33:57;;;;;;;6.28;2.42;;;;;;;;;;4988309;28;20014;-65
2023/11/26 03:36:43;;;;;;;6.10;2.75;;;;;;;;;;4962098;28;20488;-66
2023/11/26 03:39:30;;;;;;;4.25;2.63;;;;;;;;;;4976686;28;20069;-65
2023/11/26 03:42:16;;;;;;;3.53;2.60;;;;;;;;;;4974753;28;20031;-66
2023/11/26 03:45:02;;;;;;;5.18;2.78;;;;;;;;;;4994484;28;20395;-65
2023/11/26 03:47:48;;;;;;;6.38;2.67;;;;;;;;;;4993577;28;20060;-65
2023/11/26 03:50:33;;;;;;;3.47;2.30;;;;;;;;;;4980112;28;20576;-65
2023/11/26 03:53:19;;;;;;;3.15;2.03;;;;;;;;;;4979671;28;20033;-65
2023/11/26 03:56:05;;;;;;;4.10;2.58;;;;;;;;;;4974514;28;20114;-65
2023/11/26 03:58:51;;;;;;;5.65;3.42;;;;;;;;;;4976264;28;20085;-65
2023/11/26 04:01:36;;;;;;;5.65;2.22;;;;;;;;;;4975007;28;20034;-66
2023/11/26 04:04:22;;;;;;;5.43;2.95;;;;;;;;;;4975574;28;20109;-65
2023/11/26 04:07:08;;;;;;;3.65;2.17;;;;;;;;;;4974510;28;20108;-65
2023/11/26 04:09:53;;;;;;;4.22;3.13;;;;;;;;;;4978443;28;20391;-65
2023/11/26 04:12:39;;;;;;;6.60;2.92;;;;;;;;;;4974595;28;20031;-65
2023/11/26 04:15:26;;;;;;;6.22;2.85;;;;;;;;;;4974597;28;20015;-65
2023/11/26 04:18:12;;;;;;;3.78;2.72;;;;;;;;;;4973935;28;20451;-65
2023/11/26 04:20:57;;;;;;;6.15;2.70;;;;;;;;;;4977314;28;20030;-65
2023/11/26 04:23:43;;;;;;;7.85;3.58;;;;;;;;;;4993326;28;20034;-65
2023/11/26 04:26:29;;;;;;;6.07;2.95;;;;;;;;;;4993766;28;20026;-65
2023/11/26 04:29:16;;;;;;;5.70;2.80;;;;;;;;;;4979112;28;20116;-65
2023/11/26 04:32:03;;;;;;;5.10;3.13;;;;;;;;;;4991785;28;20030;-65
2023/11/26 04:34:49;;;;;;;4.00;2.85;;;;;;;;;;4994319;28;20443;-65
2023/11/26 04:37:34;;;;;;;4.53;2.60;;;;;;;;;;4986404;28;20077;-65
2023/11/26 04:40:20;;;;;;;6.95;2.92;;;;;;;;;;4974665;28;20026;-65
2023/11/26 04:43:06;;;;;;;4.80;2.90;;;;;;;;;;4976288;28;20434;-66
2023/11/26 04:45:53;;;;;;;3.78;2.42;;;;;;;;;;4976365;28;20042;-65
2023/11/26 04:48:38;;;;;;;4.70;2.13;;;;;;;;;;4974383;28;20568;-66
2023/11/26 04:51:24;;;;;;;4.15;2.40;;;;;;;;;;4992099;28;20462;-65
2023/11/26 04:54:11;;;;;;;4.03;2.35;;;;;;;;;;4993063;28;20018;-66
2023/11/26 04:56:57;;;;;;;5.38;3.00;;;;;;;;;;4977488;28;20030;-65
2023/11/26 04:59:43;;;;;;;3.00;2.35;;;;;;;;;;4974011;28;20444;-65
2023/11/26 05:02:32;;;;;;;4.82;2.65;;;;;;;;;;4988940;28;20030;-65
2023/11/26 05:05:18;;;;;;;4.30;2.28;;;;;;;;;;4992316;28;20400;-65
2023/11/26 05:08:05;;;;;;;4.82;2.63;;;;;;;;;;4993576;28;20109;-65
2023/11/26 05:10:50;;;;;;;7.70;3.38;;;;;;;;;;4993676;28;20054;-65
2023/11/26 05:13:36;;;;;;;5.05;3.20;;;;;;;;;;4978545;28;20017;-65
2023/11/26 05:16:22;;;;;;;5.15;2.72;;;;;;;;;;4993616;28;20137;-65
2023/11/26 05:19:07;;;;;;;3.63;2.17;;;;;;;;;;4990038;28;20542;-66
2023/11/26 05:21:53;;;;;;;5.03;3.17;;;;;;;;;;4974082;28;20033;-65
2023/11/26 05:24:39;;;;;;;4.85;3.10;;;;;;;;;;4979862;28;20037;-65
2023/11/26 05:27:24;;;;;;;5.18;3.13;;;;;;;;;;4980001;28;20488;-65
2023/11/26 05:30:10;;;;;;;8.05;3.70;;;;;;;;;;4987659;28;20054;-65
2023/11/26 05:32:57;;;;;;;6.85;3.85;;;;;;;;;;4992375;28;20396;-65
2023/11/26 05:35:43;;;;;;;3.15;2.75;;;;;;;;;;4992207;28;20050;-65
2023/11/26 05:38:28;;;;;;;6.50;3.08;;;;;;;;;;4991405;28;20038;-65
2023/11/26 05:41:14;;;;;;;3.83;2.80;;;;;;;;;;4976311;28;20025;-65
2023/11/26 05:44:00;;;;;;;3.05;2.30;;;;;;;;;;4973253;28;20111;-65
2023/11/26 05:46:45;;;;;;;3.65;2.75;;;;;;;;;;4974303;28;20060;-65
2023/11/26 05:49:31;;;;;;;3.83;3.22;;;;;;;;;;5027092;23;20037;-68
2023/11/26 05:52:17;;;;;;;5.75;3.22;;;;;;;;;;5030186;28;20026;-68
2023/11/26 05:55:03;;;;;;;6.65;3.45;;;;;;;;;;5029959;28;20375;-68
2023/11/26 05:57:49;;;;;;;5.15;3.15;;;;;;;;;;5030225;28;20482;-68
2023/11/26 06:00:34;;;;;;;6.65;3.22;;;;;;;;;;5009583;28;20117;-68
2023/11/26 06:03:20;;;;;;;5.63;3.30;;;;;;;;;;5012505;28;20105;-68
2023/11/26 06:06:06;;;;;;;3.40;2.42;;;;;;;;;;5013016;28;20026;-68
2023/11/26 06:08:52;;;;;;;6.53;3.20;;;;;;;;;;4996397;28;20109;-68
2023/11/26 06:11:37;;;;;;;4.57;2.83;;;;;;;;;;4995529;28;20507;-68
2023/11/26 06:14:23;;;;;;;6.38;3.17;;;;;;;;;;5033623;28;20049;-68
2023/11/26 06:17:09;;;;;;;4.32;3.13;;;;;;;;;;5034479;28;20491;-68
2023/11/26 06:19:55;;;;;;;10.18;4.00;;;;;;;;;;5033134;28;20414;-68
2023/11/26 06:22:40;;;;;;;4.03;3.28;;;;;;;;;;5034047;28;20025;-68
2023/11/26 06:25:26;;;;;;;3.60;3.03;;;;;;;;;;5017281;28;20377;-68
2023/11/26 06:28:13;;;;;;;4.65;3.08;;;;;;;;;;5014474;28;20021;-68
2023/11/26 06:30:59;;;;;;;4.28;2.78;;;;;;;;;;5011020;28;20040;-68
2023/11/26 06:33:44;;;;;;;5.47;3.75;;;;;;;;;;4999659;28;20021;-68
2023/11/26 06:36:30;;;;;;;6.20;3.70;;;;;;;;;;5010192;28;20490;-68
2023/11/26 06:39:15;;;;;;;6.68;3.38;;;;;;;;;;5010214;28;20030;-68
2023/11/26 06:42:01;;;;;;;5.28;3.20;;;;;;;;;;4994891;28;20029;-68
2023/11/26 06:44:47;;;;;;;5.60;3.00;;;;;;;;;;4997990;28;20030;-68
2023/11/26 06:47:33;;;;;;;4.85;3.40;;;;;;;;;;4996908;28;20027;-69
2023/11/26 06:50:19;;;;;;;5.63;2.83;;;;;;;;;;4994395;28;20057;-69
2023/11/26 06:53:05;;;;;;;5.28;3.05;;;;;;;;;;4995210;28;20034;-68
2023/11/26 06:55:50;;;;;;;4.55;3.05;;;;;;;;;;4994799;28;20030;-68
2023/11/26 06:58:37;;;;;;;8.18;3.47;;;;;;;;;;5011595;28;20064;-68
2023/11/26 07:01:23;;;;;;;7.47;3.78;;;;;;;;;;5014141;28;20491;-68
2023/11/26 07:04:10;;;;;;;4.47;3.28;;;;;;;;;;4998859;28;20070;-68
2023/11/26 07:06:56;;;;;;;4.90;3.00;;;;;;;;;;5013402;28;20018;-68
2023/11/26 07:09:41;;;;;;;6.30;3.40;;;;;;;;;;5008294;28;20081;-68
2023/11/26 07:12:29;;;;;;;6.07;3.15;;;;;;;;;;4996198;28;20026;-68
2023/11/26 07:15:15;;;;;;;5.43;3.15;;;;;;;;;;4993242;28;20026;-68
2023/11/26 07:18:01;;;;;;;5.35;3.63;;;;;;;;;;5004767;28;20069;-68
2023/11/26 07:20:47;;;;;;;6.50;3.20;;;;;;;;;;5013014;28;20491;-68
2023/11/26 07:23:32;;;;;;;4.88;2.50;;;;;;;;;;4999479;28;20041;-68
2023/11/26 07:26:21;;;;;;;7.07;3.53;;;;;;;;;;5011631;28;20030;-68
2023/11/26 07:29:08;;;;;;;3.80;2.53;;;;;;;;;;4996446;28;20030;-69
2023/11/26 07:31:53;;;;;;;5.07;3.20;;;;;;;;;;5003559;28;20036;-68
2023/11/26 07:34:41;;;;;;;4.85;2.88;;;;;;;;;;5032473;28;20506;-68
2023/11/26 07:37:27;;;;;;;5.22;2.83;;;;;;;;;;5008694;28;20036;-68
2023/11/26 07:40:13;;;;;;;3.58;3.28;;;;;;;;;;5007737;28;20483;-68
2023/11/26 07:42:59;;;;;;;5.68;2.92;;;;;;;;;;4996674;28;20026;-68
2023/11/26 07:45:45;;;;;;;4.95;3.10;;;;;;;;;;5008248;28;20034;-68
2023/11/26 07:48:31;;;;;;;3.65;2.58;;;;;;;;;;4994090;28;20065;-68
2023/11/26 07:51:17;;;;;;;5.53;2.47;;;;;;;;;;5000522;28;20514;-68
2023/11/26 07:54:03;;;;;;;5.25;2.83;;;;;;;;;;5004275;28;20030;-69
2023/11/26 07:56:49;;;;;;;4.30;3.22;;;;;;;;;;5011819;28;20399;-69
2023/11/26 07:59:35;;;;;;;4.35;2.90;;;;;;;;;;5005826;28;20062;-68
2023/11/26 08:02:21;;;;;;;5.55;3.42;;;;;;;;;;4994027;28;20025;-69
2023/11/26 08:05:08;;;;;;;7.38;3.92;;;;;;;;;;4995828;28;20034;-69
2023/11/26 08:07:54;;;;;;;6.93;3.60;;;;;;;;;;4977798;28;20041;-69
2023/11/26 08:10:40;;;;;;;7.78;3.30;;;;;;;;;;5001919;28;20023;-69
2023/11/26 08:13:28;;;;;;;5.65;2.88;;;;;;;;;;4994499;28;20510;-68
2023/11/26 08:16:13;;;;;;;4.82;3.65;;;;;;;;;;4996828;28;20105;-68
2023/11/26 08:19:05;;;;;;;5.15;3.25;;;;;;;;;;5001455;28;20030;-69
2023/11/26 08:21:54;;;;;;;6.68;2.88;;;;;;;;;;5003484;28;20037;-69
2023/11/26 08:24:42;;;;;;;3.35;2.50;;;;;;;;;;4987484;28;20022;-69
2023/11/26 08:27:28;;;;;;;6.80;3.78;;;;;;;;;;5025448;28;20030;-69
2023/11/26 08:30:30;;;;;;;4.68;2.97;;;;;;;;;;5032506;28;20152;-69
2023/11/26 08:33:20;;;;;;;4.28;2.85;;;;;;;;;;5023195;28;20136;-69
2023/11/26 08:36:07;;;;;;;5.15;2.47;;;;;;;;;;4984152;28;20018;-69
2023/11/26 08:38:53;;;;;;;3.15;2.55;;;;;;;;;;5014324;28;20060;-69
2023/11/26 08:41:39;;;;;;;5.10;4.03;;;;;;;;;;5020861;28;20030;-69
2023/11/26 08:44:24;;;;;;;4.50;3.13;;;;;;;;;;5011415;28;20022;-69
2023/11/26 08:47:11;;;;;;;5.32;3.67;;;;;;;;;;5001728;28;20049;-69
2023/11/26 08:49:57;;;;;;;7.72;3.22;;;;;;;;;;5031398;28;20441;-69
2023/11/26 08:52:43;;;;;;;6.93;3.47;;;;;;;;;;5032279;28;20021;-69
2023/11/26 08:55:29;;;;;;;4.03;2.85;;;;;;;;;;5027319;28;20018;-69
2023/11/26 08:58:14;;;;;;;5.30;2.70;;;;;;;;;;5031348;28;20033;-70
2023/11/26 09:01:00;;;;;;;6.07;3.13;;;;;;;;;;5005247;28;20087;-69
2023/11/26 09:03:46;;;;;;;7.43;3.83;;;;;;;;;;5031786;28;20502;-69
2023/11/26 09:06:32;;;;;;;4.75;3.38;;;;;;;;;;5031197;28;20029;-70
2023/11/26 09:09:17;;;;;;;6.88;3.58;;;;;;;;;;5026373;28;20064;-69
2023/11/26 09:12:06;;;;;;;9.25;4.57;;;;;;;;;;5011646;28;20022;-70
2023/11/26 09:14:52;;;;;;;5.72;2.95;;;;;;;;;;5010732;28;20454;-69
2023/11/26 09:17:38;;;;;;;5.82;3.17;;;;;;;;;;5011762;28;20080;-69
2023/11/26 09:20:23;;;;;;;6.68;3.50;;;;;;;;;;5011291;28;20029;-69
2023/11/26 09:23:09;;;;;;;6.50;3.70;;;;;;;;;;4997222;28;20026;-69
2023/11/26 09:25:55;;;;;;;5.85;3.30;;;;;;;;;;4991886;28;20627;-69
2023/11/26 09:28:41;;;;;;;5.10;2.90;;;;;;;;;;4991808;28;20030;-69
2023/11/26 09:31:27;;;;;;;8.60;3.45;;;;;;;;;;5008781;28;20030;-70
2023/11/26 09:34:13;;;;;;;6.03;2.97;;;;;;;;;;5010936;28;20018;-69
2023/11/26 09:37:04;;;;;;;5.22;3.25;;;;;;;;;;5005665;28;20026;-69
2023/11/26 09:39:50;;;;;;;3.75;3.30;;;;;;;;;;5015167;28;20029;-69
2023/11/26 09:42:35;;;;;;;5.43;3.22;;;;;;;;;;5024973;28;20053;-70
2023/11/26 09:45:21;;;;;;;5.72;2.92;;;;;;;;;;5033670;28;20026;-70
2023/11/26 09:48:09;;;;;;;5.22;2.90;;;;;;;;;;5034829;28;20027;-69
2023/11/26 09:50:55;;;;;;;5.63;2.72;;;;;;;;;;5022474;28;20106;-69
2023/11/26 09:53:41;;;;;;;3.72;2.75;;;;;;;;;;5001244;28;20018;-70
2023/11/26 09:56:26;;;;;;;6.57;3.05;;;;;;;;;;4998385;28;20026;-69
2023/11/26 09:59:23;;;;;;;5.20;2.72;;;;;;;;;;5011481;28;20025;-70
2023/11/26 10:02:10;;;;;;;3.38;2.92;;;;;;;;;;5015066;28;20017;-70
2023/11/26 10:04:55;;;;;;;3.47;2.35;;;;;;;;;;5006215;28;20087;-70
2023/11/26 10:07:43;;;;;;;5.32;2.75;;;;;;;;;;4995477;28;20018;-70
2023/11/26 10:10:28;;;;;;;4.40;2.50;;;;;;;;;;4995532;28;20022;-70
2023/11/26 10:13:14;;;;;;;6.55;2.95;;;;;;;;;;4997716;28;20407;-70
2023/11/26 10:15:59;;;;;;;5.95;2.70;;;;;;;;;;4995304;28;20018;-70
2023/11/26 10:18:45;;;;;;;5.63;2.67;;;;;;;;;;5020911;28;20021;-70
2023/11/26 10:21:32;;;;;;;4.10;2.20;;;;;;;;;;5004399;28;20109;-70
2023/11/26 10:24:19;;;;;;;3.85;2.35;;;;;;;;;;4992018;28;20038;-70
2023/11/26 10:27:13;;;;;;;3.20;2.75;;;;;;;;;;4995239;28;20472;-70
2023/11/26 10:29:59;;;;;;;6.15;2.88;;;;;;;;;;4984764;28;20140;-70
2023/11/26 10:33:05;;;;;;;6.90;2.30;;;;;;;;;;4995434;28;20446;-69
2023/11/26 10:35:53;;;;;;;5.30;2.33;;;;;;;;;;5001986;28;20080;-70
2023/11/26 10:38:38;;;;;;;3.50;3.10;;;;;;;;;;4999691;28;20057;-70
2023/11/26 10:41:25;;;;;;;6.70;2.95;;;;;;;;;;5014059;28;20018;-69
2023/11/26 10:44:10;;;;;;;5.00;2.65;;;;;;;;;;5022279;28;20037;-69
2023/11/26 10:47:00;;;;;;;3.95;2.47;;;;;;;;;;5033685;28;20163;-69
2023/11/26 10:49:52;;;;;;;3.35;2.50;;;;;;;;;;5004348;28;20045;-69
2023/11/26 10:52:45;;;;;;;3.00;2.47;;;;;;;;;;4986563;28;20033;-68
2023/11/26 10:55:34;;;;;;;6.97;2.55;;;;;;;;;;4996105;28;20018;-69
2023/11/26 10:58:22;;;;;;;4.80;2.03;;;;;;;;;;4980983;28;20554;-69
2023/11/26 11:01:07;;;;;;;4.13;2.28;;;;;;;;;;5008717;28;20034;-69
2023/11/26 11:03:54;;;;;;;5.07;2.42;;;;;;;;;;5013955;28;20029;-69
2023/11/26 11:06:41;;;;;;;5.25;2.03;;;;;;;;;;4983883;28;20045;-70
2023/11/26 11:09:34;;;;;;;3.95;2.03;;;;;;;;;;4978988;28;20023;-70
2023/11/26 11:12:23;;;;;;;3.53;1.90;;;;;;;;;;4984454;28;20029;-70
2023/11/26 11:15:09;;;;;;;2.75;1.80;;;;;;;;;;4980520;28;20101;-70
2023/11/26 11:17:55;;;;;;;3.65;2.10;;;;;;;;;;4989881;28;20549;-70
2023/11/26 11:21:05;;;;;;;8.27;2.58;;;;;;;;;;5012635;28;20036;-70
2023/11/26 11:23:53;;;;;;;5.65;2.47;;;;;;;;;;4996163;28;20013;-69
2023/11/26 11:26:47;;;;;;;4.93;2.10;;;;;;;;;;5033713;28;20122;-69
2023/11/26 11:29:34;;;;;;;3.03;2.00;;;;;;;;;;4993991;28;20026;-69
2023/11/26 11:32:19;;;;;;;2.67;2.00;;;;;;;;;;4981930;28;20026;-69
2023/11/26 11:35:36;;;;;;;3.42;2.17;;;;;;;;;;5000461;28;20033;-70
2023/11/26 11:38:22;;;;;;;3.70;2.22;;;;;;;;;;5013400;28;20029;-70
2023/11/26 11:41:13;;;;;;;3.67;2.22;;;;;;;;;;4999623;28;20060;-69
2023/11/26 11:44:25;;;;;;;5.63;2.30;;;;;;;;;;5001951;28;20072;-69
2023/11/26 11:47:12;;;;;;;4.13;2.75;;;;;;;;;;4997360;28;20057;-69
2023/11/26 11:50:01;;;;;;;4.10;2.17;;;;;;;;;;5026784;23;20099;-68
2023/11/26 11:52:53;;;;;;;6.28;2.60;;;;;;;;;;4995199;28;20026;-68
2023/11/26 11:55:51;;;;;;;2.40;1.80;;;;;;;;;;4983770;28;20053;-68
2023/11/26 11:58:36;;;;;;;4.70;2.63;;;;;;;;;;4993715;28;20072;-68
2023/11/26 12:01:22;;;;;;;7.72;3.03;;;;;;;;;;4974202;28;20022;-68
2023/11/26 12:04:08;;;;;;;6.43;2.72;;;;;;;;;;4980096;28;20022;-68
2023/11/26 12:06:56;;;;;;;3.28;2.65;;;;;;;;;;4980242;28;20444;-68
2023/11/26 12:09:42;;;;;;;4.35;3.35;;;;;;;;;;4993935;28;20026;-68
2023/11/26 12:12:29;;;;;;;3.25;1.88;;;;;;;;;;5001538;28;20096;-68
2023/11/26 12:15:14;;;;;;;5.00;2.65;;;;;;;;;;5012726;28;20014;-68
2023/11/26 12:18:00;;;;;;;4.68;2.22;;;;;;;;;;5002103;28;20492;-68
2023/11/26 12:20:47;;;;;;;3.15;2.47;;;;;;;;;;4979042;28;20499;-68
2023/11/26 12:23:33;;;;;;;5.50;2.67;;;;;;;;;;4979316;28;20023;-68
2023/11/26 12:26:19;;;;;;;4.00;2.40;;;;;;;;;;4978878;28;20408;-68
2023/11/26 12:29:05;;;;;;;5.20;2.40;;;;;;;;;;4993192;28;20041;-68
2023/11/26 12:31:58;;;;;;;2.90;1.85;;;;;;;;;;4993376;28;20033;-68
2023/11/26 12:34:44;;;;;;;6.82;2.97;;;;;;;;;;4979101;28;20034;-69
2023/11/26 12:37:30;;;;;;;3.80;2.47;;;;;;;;;;4979994;28;20038;-68
2023/11/26 12:40:16;;;;;;;4.63;2.35;;;;;;;;;;4992758;28;20149;-68
2023/11/26 12:43:01;;;;;;;4.07;2.60;;;;;;;;;;4978832;28;20026;-68
2023/11/26 12:45:48;;;;;;;3.58;2.55;;;;;;;;;;4983749;28;20101;-68
2023/11/26 12:48:34;;;;;;;4.60;2.17;;;;;;;;;;4993392;28;20499;-68
2023/11/26 12:51:19;;;;;;;4.70;2.63;;;;;;;;;;4993327;28;20030;-68
2023/11/26 12:54:05;;;;;;;6.72;3.22;;;;;;;;;;4993447;28;20029;-68
2023/11/26 12:56:55;;;;;;;2.95;2.60;;;;;;;;;;4978970;28;20018;-68
2023/11/26 12:59:45;;;;;;;2.95;2.13;;;;;;;;;;4979629;28;20049;-68
2023/11/26 13:02:33;;;;;;;5.90;2.28;;;;;;;;;;4977414;28;20402;-68
2023/11/26 13:05:29;;;;;;;3.60;2.22;;;;;;;;;;4980677;28;20018;-68
2023/11/26 13:08:22;;;;;;;4.78;2.15;;;;;;;;;;4974428;28;20114;-68
2023/11/26 13:11:18;;;;;;;4.30;2.53;;;;;;;;;;4973272;28;20034;-68
2023/11/26 13:14:06;;;;;;;3.72;2.72;;;;;;;;;;4963695;28;20023;-68
2023/11/26 13:16:53;;;;;;;3.70;2.40;;;;;;;;;;4975378;28;20042;-68
2023/11/26 13:19:40;;;;;;;5.70;3.30;;;;;;;;;;4979224;28;20454;-68
2023/11/26 13:22:26;;;;;;;4.88;3.47;;;;;;;;;;4995901;28;20027;-68
2023/11/26 13:25:12;;;;;;;5.30;2.72;;;;;;;;;;4996485;28;20098;-68
2023/11/26 13:27:57;;;;;;;5.70;2.83;;;;;;;;;;4995883;28;20065;-69
2023/11/26 13:30:43;;;;;;;3.22;2.28;;;;;;;;;;4996964;28;20105;-69
2023/11/26 13:33:30;;;;;;;5.32;3.70;;;;;;;;;;4995830;28;20109;-68
2023/11/26 13:36:16;;;;;;;5.82;3.20;;;;;;;;;;5001346;28;20037;-68
2023/11/26 13:39:02;;;;;;;4.03;2.85;;;;;;;;;;4996385;28;20026;-68
2023/11/26 13:41:47;;;;;;;4.35;2.70;;;;;;;;;;4998163;28;20031;-68
2023/11/26 13:44:35;;;;;;;4.53;2.85;;;;;;;;;;4996394;28;20480;-67
2023/11/26 13:47:20;;;;;;;9.20;3.10;;;;;;;;;;4998452;28;20023;-68
2023/11/26 13:50:06;;;;;;;7.15;3.47;;;;;;;;;;4996030;28;20037;-68
2023/11/26 13:52:52;;;;;;;6.72;3.33;;;;;;;;;;4995838;28;20026;-67
2023/11/26 13:55:39;;;;;;;3.88;2.75;;;;;;;;;;4996038;28;20026;-68
2023/11/26 13:58:25;;;;;;;6.07;3.30;;;;;;;;;;4995575;28;20030;-68
2023/11/26 14:01:11;;;;;;;6.03;3.10;;;;;;;;;;4996248;28;20109;-68
2023/11/26 14:03:57;;;;;;;3.80;2.35;;;;;;;;;;4981453;28;20019;-68
2023/11/26 14:06:43;;;;;;;3.35;2.00;;;;;;;;;;4978682;28;20045;-68
2023/11/26 14:09:28;;;;;;;7.40;2.72;;;;;;;;;;4996711;28;20105;-68
2023/11/26 14:12:14;;;;;;;6.05;2.00;;;;;;;;;;5008609;28;20034;-68
2023/11/26 14:15:00;;;;;;;4.80;2.00;;;;;;;;;;4995898;28;20027;-68
2023/11/26 14:17:47;;;;;;;3.95;1.65;;;;;;;;;;4995674;28;20562;-68
2023/11/26 14:20:33;;;;;;;3.22;1.83;;;;;;;;;;4982781;28;20403;-68
2023/11/26 14:23:21;;;;;;;4.55;2.53;;;;;;;;;;4995003;28;20405;-68
2023/11/26 14:26:07;;;;;;;3.03;2.05;;;;;;;;;;4994729;28;20519;-68
2023/11/26 14:28:52;;;;;;;3.42;1.92;;;;;;;;;;5006691;28;20030;-68
2023/11/26 14:31:38;;;;;;;2.70;1.55;;;;;;;;;;5008354;28;22206;-67
2023/11/26 14:34:23;;;;;;;3.95;2.00;;;;;;;;;;4980712;28;20046;-67
2023/11/26 14:37:09;;;;;;;4.55;2.00;;;;;;;;;;4999110;28;20128;-68
2023/11/26 14:39:56;;;;;;;5.57;2.58;;;;;;;;;;4981355;28;20026;-68
2023/11/26 14:42:43;;;;;;;4.97;2.03;;;;;;;;;;4976181;28;20515;-68
2023/11/26 14:45:28;;;;;;;4.55;2.15;;;;;;;;;;4977047;28;20026;-68
2023/11/26 14:48:14;;;;;;;3.38;2.53;;;;;;;;;;4995105;28;20030;-68
2023/11/26 14:51:01;;;;;;;5.65;2.67;;;;;;;;;;4995053;28;20508;-67
2023/11/26 14:53:50;;;;;;;5.43;2.90;;;;;;;;;;4995030;28;20031;-68
2023/11/26 14:56:36;;;;;;;8.00;2.67;;;;;;;;;;4983603;28;20022;-67
2023/11/26 14:59:22;;;;;;;6.22;2.90;;;;;;;;;;4962693;28;20055;-68
2023/11/26 15:02:09;;;;;;;4.00;2.67;;;;;;;;;;4991500;28;20026;-68
2023/11/26 15:04:57;;;;;;;3.83;2.33;;;;;;;;;;4994918;28;20018;-67
2023/11/26 15:07:43;;;;;;;3.70;2.25;;;;;;;;;;4995447;28;20109;-68
2023/11/26 15:10:29;;;;;;;4.00;2.53;;;;;;;;;;4995170;28;20034;-68
2023/11/26 15:13:14;;;;;;;3.72;2.38;;;;;;;;;;4994617;28;20023;-68
2023/11/26 15:16:00;;;;;;;4.40;2.20;;;;;;;;;;4995008;28;20377;-69
2023/11/26 15:18:46;;;;;;;4.07;2.47;;;;;;;;;;4979193;28;20025;-68
2023/11/26 15:21:32;;;;;;;3.20;2.15;;;;;;;;;;4994189;28;20038;-67
2023/11/26 15:24:18;;;;;;;3.03;1.92;;;;;;;;;;4979097;28;20398;-67
2023/11/26 15:27:05;;;;;;;4.47;2.70;;;;;;;;;;4994660;28;20022;-67
2023/11/26 15:29:51;;;;;;;3.65;2.17;;;;;;;;;;4961428;28;20031;-68
2023/11/26 15:32:40;;;;;;;2.53;2.10;;;;;;;;;;4961271;28;20018;-67
2023/11/26 15:35:26;;;;;;;3.58;2.53;;;;;;;;;;4974609;28;20476;-68
2023/11/26 15:38:11;;;;;;;6.28;2.63;;;;;;;;;;4974863;28;20065;-67
2023/11/26 15:40:57;;;;;;;5.78;2.35;;;;;;;;;;5007879;28;20021;-68
2023/11/26 15:43:43;;;;;;;5.78;3.08;;;;;;;;;;5012078;28;20033;-68
2023/11/26 15:46:28;;;;;;;5.00;2.50;;;;;;;;;;4999724;28;20061;-68
2023/11/26 15:49:14;;;;;;;4.75;2.38;;;;;;;;;;4995874;28;20096;-68
2023/11/26 15:52:00;;;;;;;2.33;2.00;;;;;;;;;;4995341;28;20023;-68
2023/11/26 15:54:45;;;;;;;2.72;1.85;;;;;;;;;;4986459;28;20023;-67
2023/11/26 15:57:31;;;;;;;7.55;2.72;;;;;;;;;;4993644;28;20526;-67
2023/11/26 16:00:18;;;;;;;3.13;2.72;;;;;;;;;;4979785;28;20029;-68
2023/11/26 16:03:04;;;;;;;4.22;2.78;;;;;;;;;;4979758;28;20089;-68
2023/11/26 16:05:50;;;;;;;4.40;3.10;;;;;;;;;;4995236;28;20033;-68
2023/11/26 16:08:35;;;;;;;4.60;3.03;;;;;;;;;;4980351;28;20030;-68
2023/11/26 16:11:21;;;;;;;6.00;3.15;;;;;;;;;;4994369;28;20069;-68
2023/11/26 16:14:06;;;;;;;7.20;2.75;;;;;;;;;;4993585;28;20018;-68
2023/11/26 16:16:52;;;;;;;4.82;2.85;;;;;;;;;;5006747;28;20487;-68
2023/11/26 16:19:38;;;;;;;3.53;2.33;;;;;;;;;;5011339;28;20049;-68
2023/11/26 16:22:24;;;;;;;5.10;2.70;;;;;;;;;;5004643;28;20155;-68
2023/11/26 16:25:18;;;;;;;5.28;2.85;;;;;;;;;;4996011;28;20023;-68
2023/11/26 16:28:04;;;;;;;4.20;2.53;;;;;;;;;;4992811;28;20036;-68
2023/11/26 16:30:49;;;;;;;5.60;3.17;;;;;;;;;;4993535;28;20018;-68
2023/11/26 16:33:46;;;;;;;5.95;3.03;;;;;;;;;;5006640;28;20025;-68
2023/11/26 16:36:32;;;;;;;6.75;3.88;;;;;;;;;;4997087;28;20030;-68
2023/11/26 16:39:19;;;;;;;4.68;2.90;;;;;;;;;;4999170;28;20029;-68
2023/11/26 16:42:05;;;;;;;6.20;3.60;;;;;;;;;;4978898;28;20022;-68